createdAt,value
2022-07-28T00:01:40.917Z,42.90
2022-07-28T00:04:09.097Z,43.60
2022-07-28T00:06:37.295Z,43.10
2022-07-28T00:09:05.768Z,43.10
2022-07-28T00:11:33.901Z,43.30
2022-07-28T00:14:02.004Z,43.30
2022-07-28T00:16:30.271Z,43.30
2022-07-28T00:18:59.921Z,43.40
2022-07-28T00:21:28.029Z,43.50
2022-07-28T00:23:56.320Z,43.50
2022-07-28T00:26:24.479Z,43.60
2022-07-28T00:28:52.783Z,43.70
2022-07-28T00:31:21.095Z,43.70
2022-07-28T00:33:49.641Z,43.70
2022-07-28T00:36:19.538Z,43.80
2022-07-28T00:38:52.821Z,43.90
2022-07-28T00:41:23.013Z,43.80
2022-07-28T00:43:52.522Z,43.90
2022-07-28T00:46:22.510Z,44.00
2022-07-28T00:48:52.086Z,44.00
2022-07-28T00:51:23.188Z,44.10
2022-07-28T00:53:52.695Z,44.10
2022-07-28T00:56:21.382Z,44.10
2022-07-28T00:58:50.568Z,44.10
2022-07-28T01:01:21.285Z,44.10
2022-07-28T01:03:53.685Z,44.30
2022-07-28T01:06:41.179Z,44.30
2022-07-28T01:09:21.031Z,44.50
2022-07-28T01:12:06.627Z,44.50
2022-07-28T01:14:40.385Z,44.60
2022-07-28T01:17:27.527Z,44.50
2022-07-28T01:20:06.449Z,44.70
2022-07-28T01:22:41.050Z,44.70
2022-07-28T01:25:20.527Z,44.80
2022-07-28T01:28:02.619Z,44.90
2022-07-28T01:30:34.603Z,44.90
2022-07-28T01:33:06.041Z,44.30
2022-07-28T01:35:39.683Z,44.70
2022-07-28T01:38:11.606Z,44.80
2022-07-28T01:40:40.494Z,44.90
2022-07-28T01:43:13.403Z,44.40
2022-07-28T01:45:45.795Z,44.80
2022-07-28T01:48:16.379Z,45.00
2022-07-28T01:50:47.172Z,45.10
2022-07-28T01:53:17.869Z,45.20
2022-07-28T01:55:47.487Z,45.30
2022-07-28T01:58:16.347Z,45.40
2022-07-28T02:00:49.776Z,45.50
2022-07-28T02:03:19.899Z,45.60
2022-07-28T02:05:51.483Z,45.60
2022-07-28T02:08:21.535Z,45.70
2022-07-28T02:11:05.080Z,45.70
2022-07-28T02:13:39.022Z,45.80
2022-07-28T02:16:12.961Z,45.90
2022-07-28T02:18:44.308Z,46.10
2022-07-28T02:21:14.239Z,46.10
2022-07-28T02:23:44.653Z,46.20
2022-07-28T02:26:15.272Z,46.20
2022-07-28T02:28:51.373Z,46.30
2022-07-28T02:31:27.262Z,46.40
2022-07-28T02:34:02.372Z,46.50
2022-07-28T02:36:33.640Z,46.50
2022-07-28T02:39:07.444Z,46.60
2022-07-28T02:41:40.967Z,46.70
2022-07-28T02:44:14.675Z,46.80
2022-07-28T02:46:46.636Z,46.70
2022-07-28T02:49:20.483Z,46.80
2022-07-28T02:51:50.788Z,46.90
2022-07-28T02:54:20.794Z,46.90
2022-07-28T02:56:53.330Z,46.80
2022-07-28T02:59:23.175Z,47.00
2022-07-28T03:01:53.307Z,47.00
2022-07-28T03:04:42.242Z,47.10
2022-07-28T03:07:11.128Z,47.20
2022-07-28T03:09:41.674Z,47.20
2022-07-28T03:12:10.322Z,47.40
2022-07-28T03:14:38.658Z,47.40
2022-07-28T03:17:09.012Z,47.50
2022-07-28T03:19:37.710Z,47.60
2022-07-28T03:22:06.476Z,47.60
2022-07-28T03:24:41.348Z,47.60
2022-07-28T03:27:17.702Z,47.60
2022-07-28T03:29:49.836Z,47.70
2022-07-28T03:32:21.315Z,47.70
2022-07-28T03:34:50.166Z,47.70
2022-07-28T03:37:25.015Z,47.70
2022-07-28T03:39:56.073Z,47.80
2022-07-28T03:42:25.563Z,47.80
2022-07-28T03:44:54.150Z,47.70
2022-07-28T03:47:25.251Z,47.80
2022-07-28T03:49:53.588Z,47.90
2022-07-28T03:52:21.886Z,47.90
2022-07-28T03:54:54.470Z,47.90
2022-07-28T03:57:24.557Z,48.00
2022-07-28T03:59:53.085Z,48.00
2022-07-28T04:02:21.233Z,48.10
2022-07-28T04:04:50.871Z,48.10
2022-07-28T04:07:19.029Z,48.10
2022-07-28T04:09:47.154Z,48.20
2022-07-28T04:12:15.252Z,48.20
2022-07-28T04:14:43.581Z,48.20
2022-07-28T04:17:11.823Z,48.20
2022-07-28T04:19:39.960Z,48.20
2022-07-28T04:22:09.413Z,48.30
2022-07-28T04:24:38.114Z,48.40
2022-07-28T04:27:07.155Z,48.30
2022-07-28T04:29:35.238Z,48.40
2022-07-28T04:32:03.616Z,48.40
2022-07-28T04:34:31.735Z,48.40
2022-07-28T04:36:59.830Z,48.40
2022-07-28T04:39:29.385Z,48.50
2022-07-28T04:41:57.505Z,48.60
2022-07-28T04:44:25.650Z,48.60
2022-07-28T04:46:53.872Z,48.70
2022-07-28T04:49:22.062Z,48.70
2022-07-28T04:51:52.417Z,48.70
2022-07-28T04:54:26.347Z,48.80
2022-07-28T04:56:56.523Z,48.90
2022-07-28T04:59:24.655Z,48.90
2022-07-28T05:01:53.431Z,48.80
2022-07-28T05:04:21.683Z,48.80
2022-07-28T05:06:49.818Z,48.90
2022-07-28T05:09:18.056Z,48.90
2022-07-28T05:11:46.264Z,48.90
2022-07-28T05:14:16.331Z,48.90
2022-07-28T05:16:44.891Z,48.90
2022-07-28T05:19:14.304Z,48.80
2022-07-28T05:21:42.503Z,48.70
2022-07-28T05:24:10.966Z,48.70
2022-07-28T05:26:39.329Z,48.60
2022-07-28T05:29:07.508Z,48.70
2022-07-28T05:31:37.134Z,48.80
2022-07-28T05:34:06.075Z,48.90
2022-07-28T05:36:35.075Z,48.80
2022-07-28T05:39:03.617Z,48.80
2022-07-28T05:41:31.759Z,49.00
2022-07-28T05:44:01.304Z,48.90
2022-07-28T05:46:29.558Z,48.90
2022-07-28T05:48:59.160Z,48.80
2022-07-28T05:51:27.348Z,48.90
2022-07-28T05:53:55.444Z,48.70
2022-07-28T05:56:24.225Z,48.60
2022-07-28T05:58:53.132Z,48.50
2022-07-28T06:01:21.380Z,48.70
2022-07-28T06:04:10.179Z,48.60
2022-07-28T06:06:42.362Z,48.70
2022-07-28T06:09:10.496Z,49.30
2022-07-28T06:11:38.583Z,48.70
2022-07-28T06:14:06.680Z,48.50
2022-07-28T06:16:35.002Z,48.30
2022-07-28T06:19:03.166Z,48.30
2022-07-28T06:21:32.982Z,48.20
2022-07-28T06:24:02.616Z,48.10
2022-07-28T06:26:30.932Z,48.10
2022-07-28T06:28:59.657Z,47.90
2022-07-28T06:31:27.856Z,48.00
2022-07-28T06:33:56.075Z,47.90
2022-07-28T06:36:24.214Z,47.70
2022-07-28T06:38:52.300Z,47.80
2022-07-28T06:41:21.839Z,47.70
2022-07-28T06:43:52.148Z,47.60
2022-07-28T06:46:20.337Z,47.40
2022-07-28T06:48:48.618Z,47.20
2022-07-28T06:51:19.782Z,47.00
2022-07-28T06:53:49.031Z,47.10
2022-07-28T06:56:19.637Z,47.00
2022-07-28T06:58:50.880Z,46.60
2022-07-28T07:01:19.324Z,46.70
2022-07-28T07:03:47.634Z,46.20
2022-07-28T07:06:15.841Z,46.00
2022-07-28T07:08:44.086Z,46.00
2022-07-28T07:11:12.914Z,45.90
2022-07-28T07:13:41.048Z,45.70
2022-07-28T07:16:10.620Z,45.60
2022-07-28T07:18:38.810Z,45.60
2022-07-28T07:21:07.236Z,45.30
2022-07-28T07:23:35.939Z,45.20
2022-07-28T07:26:04.382Z,45.00
2022-07-28T07:28:34.259Z,45.00
2022-07-28T07:31:02.521Z,44.60
2022-07-28T07:33:32.299Z,44.80
2022-07-28T07:36:00.474Z,44.50
2022-07-28T07:38:29.421Z,44.30
2022-07-28T07:40:57.736Z,44.40
2022-07-28T07:43:26.030Z,44.00
2022-07-28T07:45:54.765Z,43.90
2022-07-28T07:48:23.376Z,43.90
2022-07-28T07:50:54.238Z,43.90
2022-07-28T07:53:22.931Z,43.60
2022-07-28T07:55:51.116Z,43.50
2022-07-28T07:58:19.330Z,43.30
2022-07-28T08:00:47.459Z,43.40
2022-07-28T08:03:16.865Z,43.20
2022-07-28T08:05:57.496Z,43.20
2022-07-28T08:08:25.689Z,43.00
2022-07-28T08:10:54.379Z,43.00
2022-07-28T08:13:23.198Z,42.50
2022-07-28T08:15:51.907Z,42.30
2022-07-28T08:18:20.566Z,42.20
2022-07-28T08:20:48.697Z,42.00
2022-07-28T08:23:21.663Z,42.00
2022-07-28T08:25:54.139Z,42.00
2022-07-28T08:28:22.289Z,41.70
2022-07-28T08:30:50.520Z,41.40
2022-07-28T08:33:21.940Z,41.20
2022-07-28T08:35:50.822Z,41.30
2022-07-28T08:38:20.364Z,40.90
2022-07-28T08:40:51.315Z,40.60
2022-07-28T08:43:31.862Z,40.50
2022-07-28T08:46:02.183Z,40.50
2022-07-28T08:48:33.271Z,40.50
2022-07-28T08:51:04.911Z,40.20
2022-07-28T08:53:37.066Z,40.10
2022-07-28T08:56:07.639Z,40.00
2022-07-28T08:58:37.539Z,40.00
2022-07-28T09:01:08.510Z,40.00
2022-07-28T09:03:38.426Z,39.90
2022-07-28T09:06:07.044Z,39.70
2022-07-28T09:08:36.581Z,39.50
2022-07-28T09:11:06.270Z,39.20
2022-07-28T09:13:35.403Z,39.10
2022-07-28T09:16:04.223Z,39.00
2022-07-28T09:18:32.532Z,38.80
2022-07-28T09:21:00.662Z,39.00
2022-07-28T09:23:45.373Z,38.50
2022-07-28T09:26:13.943Z,38.20
2022-07-28T09:28:49.617Z,38.40
2022-07-28T09:31:18.390Z,38.30
2022-07-28T09:33:58.463Z,38.00
2022-07-28T09:36:26.767Z,37.70
2022-07-28T09:38:59.175Z,37.90
2022-07-28T09:41:27.424Z,37.90
2022-07-28T09:43:56.006Z,37.70
2022-07-28T09:46:29.363Z,37.50
2022-07-28T09:48:59.688Z,37.20
2022-07-28T09:51:29.481Z,37.30
2022-07-28T09:54:11.384Z,37.30
2022-07-28T09:56:41.982Z,36.90
2022-07-28T09:59:11.184Z,36.90
2022-07-28T10:01:53.331Z,36.70
2022-07-28T10:04:32.497Z,36.50
2022-07-28T10:07:05.973Z,36.30
2022-07-28T10:09:35.597Z,36.30
2022-07-28T10:12:20.765Z,36.40
2022-07-28T10:14:50.284Z,36.00
2022-07-28T10:17:30.436Z,36.00
2022-07-28T10:19:59.963Z,35.60
2022-07-28T10:22:32.929Z,35.80
2022-07-28T10:25:07.346Z,35.60
2022-07-28T10:27:35.631Z,35.40
2022-07-28T10:30:06.575Z,35.60
2022-07-28T10:32:42.578Z,35.10
2022-07-28T10:35:13.091Z,34.80
2022-07-28T10:37:47.124Z,34.80
2022-07-28T10:40:19.077Z,34.70
2022-07-28T10:42:49.580Z,34.80
2022-07-28T10:45:18.234Z,35.00
2022-07-28T10:47:46.888Z,34.50
2022-07-28T10:50:15.707Z,34.80
2022-07-28T10:52:48.157Z,34.50
2022-07-28T10:55:37.763Z,34.40
2022-07-28T10:58:18.447Z,34.20
2022-07-28T11:00:59.860Z,33.90
2022-07-28T11:03:42.848Z,34.30
2022-07-28T11:06:36.922Z,33.90
2022-07-28T11:09:25.362Z,34.10
2022-07-28T11:11:57.845Z,34.00
2022-07-28T11:14:33.909Z,33.90
2022-07-28T11:17:24.422Z,33.90
2022-07-28T11:20:29.156Z,33.70
2022-07-28T11:22:51.738Z,33.70
2022-07-28T11:25:22.691Z,33.70
2022-07-28T11:28:04.636Z,33.40
2022-07-28T11:30:52.831Z,33.30
2022-07-28T11:33:21.867Z,33.40
2022-07-28T11:36:00.675Z,33.70
2022-07-28T11:38:30.507Z,33.30
2022-07-28T11:41:01.236Z,33.40
2022-07-28T11:43:39.747Z,33.20
2022-07-28T11:46:37.554Z,33.10
2022-07-28T11:49:27.530Z,33.00
2022-07-28T11:52:13.523Z,32.70
2022-07-28T11:54:44.372Z,33.00
2022-07-28T11:57:13.854Z,33.00
2022-07-28T11:59:49.771Z,33.10
2022-07-28T12:02:24.528Z,32.70
2022-07-28T12:05:04.604Z,32.60
2022-07-28T12:07:35.580Z,32.50
2022-07-28T12:10:44.097Z,32.40
2022-07-28T12:13:11.354Z,32.60
2022-07-28T12:15:40.963Z,32.40
2022-07-28T12:18:12.684Z,32.20
2022-07-28T12:20:48.674Z,32.60
2022-07-28T12:23:17.114Z,31.90
2022-07-28T12:25:47.276Z,32.00
2022-07-28T12:28:22.566Z,31.80
2022-07-28T12:30:52.617Z,31.70
2022-07-28T12:33:28.963Z,31.80
2022-07-28T12:35:59.910Z,31.60
2022-07-28T12:38:29.861Z,31.60
2022-07-28T12:40:58.170Z,31.30
2022-07-28T12:43:29.261Z,31.30
2022-07-28T12:45:59.075Z,31.00
2022-07-28T12:48:27.370Z,31.10
2022-07-28T12:50:55.562Z,31.20
2022-07-28T12:53:25.810Z,31.30
2022-07-28T12:56:01.963Z,31.30
2022-07-28T12:58:30.616Z,31.00
2022-07-28T13:01:01.451Z,31.10
2022-07-28T13:03:30.612Z,31.10
2022-07-28T13:06:05.416Z,30.70
2022-07-28T13:08:44.667Z,30.50
2022-07-28T13:11:42.377Z,30.60
2022-07-28T13:14:03.889Z,30.80
2022-07-28T13:16:34.428Z,30.70
2022-07-28T13:19:05.527Z,30.80
2022-07-28T13:21:59.569Z,30.70
2022-07-28T13:24:29.893Z,30.90
2022-07-28T13:26:59.182Z,30.90
2022-07-28T13:29:27.333Z,30.90
2022-07-28T13:31:56.908Z,30.90
2022-07-28T13:34:25.142Z,30.80
2022-07-28T13:36:53.449Z,30.80
2022-07-28T13:39:22.541Z,31.00
2022-07-28T13:41:58.170Z,30.80
2022-07-28T13:44:27.389Z,31.10
2022-07-28T13:46:59.320Z,30.80
2022-07-28T13:49:28.401Z,30.60
2022-07-28T13:51:57.307Z,30.50
2022-07-28T13:54:25.910Z,30.60
2022-07-28T13:56:54.406Z,30.60
2022-07-28T13:59:26.169Z,30.60
2022-07-28T14:01:57.461Z,30.70
2022-07-28T14:04:26.590Z,30.70
2022-07-28T14:06:55.109Z,30.70
2022-07-28T14:09:23.360Z,30.70
2022-07-28T14:11:53.305Z,30.70
2022-07-28T14:14:23.718Z,30.70
2022-07-28T14:16:54.347Z,30.70
2022-07-28T14:19:39.594Z,30.30
2022-07-28T14:22:13.382Z,30.70
2022-07-28T14:24:42.317Z,30.60
2022-07-28T14:27:11.011Z,30.60
2022-07-28T14:29:39.398Z,30.60
2022-07-28T14:32:08.269Z,30.50
2022-07-28T14:34:39.766Z,30.50
2022-07-28T14:37:09.090Z,30.60
2022-07-28T14:39:38.163Z,30.70
2022-07-28T14:42:06.837Z,30.70
2022-07-28T14:44:35.400Z,30.40
2022-07-28T14:47:03.904Z,30.40
2022-07-28T14:49:32.126Z,30.10
2022-07-28T14:52:01.908Z,30.20
2022-07-28T14:54:30.089Z,30.10
2022-07-28T14:56:58.271Z,30.10
2022-07-28T14:59:26.404Z,30.10
2022-07-28T15:01:54.702Z,30.30
2022-07-28T15:04:22.881Z,30.10
2022-07-28T15:06:51.560Z,30.00
2022-07-28T15:09:21.194Z,30.00
2022-07-28T15:11:49.248Z,30.00
2022-07-28T15:14:21.191Z,30.00
2022-07-28T15:16:50.062Z,30.10
2022-07-28T15:19:18.197Z,30.40
2022-07-28T15:21:47.611Z,30.30
2022-07-28T15:24:16.963Z,30.60
2022-07-28T15:26:46.684Z,30.50
2022-07-28T15:29:15.027Z,30.20
2022-07-28T15:31:45.216Z,30.10
2022-07-28T15:34:13.970Z,30.40
2022-07-28T15:36:42.520Z,30.40
2022-07-28T15:39:14.033Z,30.30
2022-07-28T15:41:43.187Z,30.20
2022-07-28T15:44:15.561Z,30.40
2022-07-28T15:46:44.852Z,30.30
2022-07-28T15:49:15.014Z,30.20
2022-07-28T15:51:43.249Z,30.20
2022-07-28T15:54:11.628Z,30.30
2022-07-28T15:56:40.030Z,30.30
2022-07-28T15:59:09.089Z,30.40
2022-07-28T16:01:45.171Z,30.40
2022-07-28T16:04:14.149Z,30.30
2022-07-28T16:07:00.379Z,30.40
2022-07-28T16:09:45.522Z,30.30
2022-07-28T16:12:14.951Z,30.20
2022-07-28T16:14:43.429Z,30.30
2022-07-28T16:17:13.662Z,30.40
2022-07-28T16:19:50.399Z,30.60
2022-07-28T16:22:20.290Z,30.50
2022-07-28T16:24:49.283Z,30.50
2022-07-28T16:27:17.442Z,30.80
2022-07-28T16:29:45.917Z,30.60
2022-07-28T16:32:18.145Z,30.40
2022-07-28T16:34:47.896Z,30.50
2022-07-28T16:37:19.342Z,30.50
2022-07-28T16:39:48.675Z,30.70
2022-07-28T16:42:16.919Z,30.80
2022-07-28T16:44:45.271Z,30.70
2022-07-28T16:47:13.379Z,30.80
2022-07-28T16:49:45.999Z,30.80
2022-07-28T16:52:15.058Z,30.80
2022-07-28T16:54:43.397Z,30.70
2022-07-28T16:57:11.547Z,30.70
2022-07-28T16:59:47.003Z,30.80
2022-07-28T17:02:17.250Z,30.90
2022-07-28T17:04:46.994Z,30.80
2022-07-28T17:07:15.636Z,30.80
2022-07-28T17:09:44.234Z,31.10
2022-07-28T17:12:12.714Z,31.20
2022-07-28T17:14:40.861Z,31.40
2022-07-28T17:17:09.281Z,31.20
2022-07-28T17:19:40.812Z,31.10
2022-07-28T17:22:17.080Z,31.00
2022-07-28T17:24:45.325Z,30.90
2022-07-28T17:30:01.781Z,31.10
2022-07-28T17:32:29.958Z,31.10
2022-07-28T17:34:58.140Z,31.20
2022-07-28T17:37:28.985Z,31.10
2022-07-28T17:39:58.592Z,31.20
2022-07-28T17:42:26.643Z,31.10
2022-07-28T17:44:56.477Z,31.10
2022-07-28T17:47:35.959Z,31.10
2022-07-28T17:50:07.436Z,31.10
2022-07-28T17:52:37.022Z,31.20
2022-07-28T17:55:23.368Z,31.20
2022-07-28T17:57:52.793Z,31.20
2022-07-28T18:00:22.612Z,31.20
2022-07-28T18:02:50.962Z,31.20
2022-07-28T18:05:19.556Z,31.20
2022-07-28T18:07:51.092Z,31.30
2022-07-28T18:10:24.996Z,31.40
2022-07-28T18:12:55.668Z,31.50
2022-07-28T18:15:23.865Z,31.50
2022-07-28T18:17:55.450Z,31.50
2022-07-28T18:20:24.962Z,31.50
2022-07-28T18:22:54.508Z,31.60
2022-07-28T18:25:23.971Z,31.60
2022-07-28T18:27:52.133Z,31.60
2022-07-28T18:30:20.544Z,31.70
2022-07-28T18:32:48.922Z,31.80
2022-07-28T18:35:17.895Z,31.80
2022-07-28T18:37:46.463Z,32.00
2022-07-28T18:40:17.992Z,31.80
2022-07-28T18:42:46.354Z,31.90
2022-07-28T18:45:14.704Z,32.10
2022-07-28T18:47:46.566Z,32.00
2022-07-28T18:50:30.968Z,31.90
2022-07-28T18:53:00.485Z,32.20
2022-07-28T18:55:30.284Z,32.30
2022-07-28T18:57:58.755Z,32.30
2022-07-28T19:00:27.116Z,32.30
2022-07-28T19:02:55.366Z,32.40
2022-07-28T19:05:23.576Z,32.50
2022-07-28T19:07:51.726Z,32.50
2022-07-28T19:10:19.847Z,32.50
2022-07-28T19:12:50.835Z,32.70
2022-07-28T19:15:19.122Z,32.60
2022-07-28T19:17:47.309Z,32.60
2022-07-28T19:20:35.359Z,32.60
2022-07-28T19:23:05.476Z,32.70
2022-07-28T19:25:36.178Z,32.90
2022-07-28T19:28:06.182Z,32.80
2022-07-28T19:30:35.084Z,32.90
2022-07-28T19:33:03.663Z,33.00
2022-07-28T19:35:31.745Z,33.00
2022-07-28T19:38:01.015Z,33.10
2022-07-28T19:40:32.065Z,33.20
2022-07-28T19:43:00.555Z,33.10
2022-07-28T19:45:30.115Z,33.20
2022-07-28T19:47:58.194Z,33.20
2022-07-28T19:50:26.402Z,33.60
2022-07-28T19:52:54.481Z,33.40
2022-07-28T19:55:26.895Z,33.40
2022-07-28T19:57:59.394Z,33.30
2022-07-28T20:00:29.087Z,33.30
2022-07-28T20:02:58.289Z,33.20
2022-07-28T20:05:26.575Z,33.30
2022-07-28T20:07:56.711Z,33.40
2022-07-28T20:10:24.997Z,33.50
2022-07-28T20:12:53.190Z,33.50
2022-07-28T20:15:21.245Z,33.60
2022-07-28T20:17:53.178Z,33.60
2022-07-28T20:20:21.454Z,33.50
2022-07-28T20:22:49.751Z,33.50
2022-07-28T20:25:17.917Z,33.50
2022-07-28T20:27:46.067Z,33.40
2022-07-28T20:30:15.323Z,33.40
2022-07-28T20:32:44.457Z,33.60
2022-07-28T20:35:14.111Z,33.50
2022-07-28T20:37:42.287Z,33.40
2022-07-28T20:40:11.713Z,33.40
2022-07-28T20:42:43.917Z,33.30
2022-07-28T20:45:12.561Z,33.20
2022-07-28T20:47:41.047Z,33.30
2022-07-28T20:50:09.723Z,33.30
2022-07-28T20:52:39.233Z,33.20
2022-07-28T20:55:08.434Z,33.30
2022-07-28T20:57:36.540Z,33.30
2022-07-28T21:00:06.268Z,33.30
2022-07-28T21:02:34.404Z,33.30
2022-07-28T21:05:02.613Z,33.40
2022-07-28T21:08:00.391Z,33.40
2022-07-28T21:10:20.753Z,33.40
2022-07-28T21:12:49.001Z,33.40
2022-07-28T21:15:17.190Z,33.40
2022-07-28T21:17:45.290Z,33.30
2022-07-28T21:20:14.065Z,33.40
2022-07-28T21:22:42.150Z,33.40
2022-07-28T21:25:10.790Z,33.30
2022-07-28T21:28:03.057Z,33.30
2022-07-28T21:30:31.318Z,33.30
2022-07-28T21:32:59.413Z,33.30
2022-07-28T21:35:27.647Z,33.20
2022-07-28T21:37:55.824Z,33.10
2022-07-28T21:40:24.134Z,33.20
2022-07-28T21:42:53.724Z,33.20
2022-07-28T21:45:22.284Z,33.20
2022-07-28T21:47:50.483Z,33.20
2022-07-28T21:50:18.826Z,33.20
2022-07-28T21:52:47.053Z,33.20
2022-07-28T21:55:15.423Z,33.30
2022-07-28T21:57:43.534Z,33.30
2022-07-28T22:00:14.436Z,33.20
2022-07-28T22:02:42.804Z,33.20
2022-07-28T22:05:13.912Z,33.30
2022-07-28T22:07:42.251Z,33.30
2022-07-28T22:10:11.126Z,33.30
2022-07-28T22:12:40.913Z,33.30
2022-07-28T22:15:09.548Z,33.20
2022-07-28T22:17:39.271Z,33.10
2022-07-28T22:20:09.301Z,33.20
2022-07-28T22:22:37.573Z,33.30
2022-07-28T22:25:06.662Z,33.20
2022-07-28T22:27:34.948Z,33.20
2022-07-28T22:30:03.842Z,33.20
2022-07-28T22:32:31.922Z,33.30
2022-07-28T22:35:01.371Z,33.30
2022-07-28T22:37:29.806Z,33.30
2022-07-28T22:39:57.927Z,33.30
2022-07-28T22:42:26.098Z,33.30
2022-07-28T22:44:54.959Z,33.30
2022-07-28T22:47:23.060Z,33.40
2022-07-28T22:49:53.668Z,33.40
2022-07-28T22:52:25.818Z,33.40
2022-07-28T22:54:54.276Z,33.50
2022-07-28T22:57:22.954Z,33.50
2022-07-28T22:59:51.521Z,33.50
2022-07-28T23:02:19.904Z,33.50
2022-07-28T23:04:51.600Z,33.60
2022-07-28T23:07:20.439Z,33.50
2022-07-28T23:10:11.699Z,33.60
2022-07-28T23:12:40.255Z,33.60
2022-07-28T23:15:09.319Z,33.60
2022-07-28T23:17:37.728Z,33.60
2022-07-28T23:20:07.023Z,33.60
2022-07-28T23:22:35.176Z,33.60
2022-07-28T23:25:03.809Z,33.70
2022-07-28T23:27:33.780Z,33.60
2022-07-28T23:30:02.196Z,33.60
2022-07-28T23:32:30.374Z,33.70
2022-07-28T23:34:58.507Z,33.70
2022-07-28T23:37:26.575Z,33.70
2022-07-28T23:39:54.679Z,33.70
2022-07-28T23:42:23.212Z,33.70
2022-07-28T23:44:52.706Z,33.60
2022-07-28T23:47:20.814Z,33.80
2022-07-28T23:49:48.963Z,33.70
2022-07-28T23:52:17.213Z,33.70
2022-07-28T23:54:45.367Z,33.70
2022-07-28T23:57:13.467Z,33.70
2022-07-28T23:59:41.748Z,33.70
